Time;durP1;ratioP1;P1;durP2;ratioP2;P2;SDS_P1;SDS_P2;PMS_P1;PMS_P2;Temp;Humidity;BMP_temperature;BMP_pressure;BME280_temperature;BME280_humidity;BME280_pressure;Samples;Min_cycle;Max_cycle;Signal;HPM_P1;HPM_P2
2022/03/26 00:00:36;;;;;;;55.92;22.65;;;;;;;8.66;54.85;101772.70;1664843;83;25863;-65
2022/03/26 00:03:04;;;;;;;64.90;25.50;;;;;;;8.64;54.86;101774.53;1651206;85;99040;-65
2022/03/26 00:05:30;;;;;;;66.70;25.25;;;;;;;8.63;55.10;101772.77;1650738;84;25796;-65
2022/03/26 00:07:56;;;;;;;70.12;25.80;;;;;;;8.61;55.11;101774.58;1654981;84;28187;-65
2022/03/26 00:10:22;;;;;;;80.40;30.02;;;;;;;8.57;55.12;101767.07;1624763;86;98788;-65
2022/03/26 00:12:50;;;;;;;71.10;28.57;;;;;;;8.53;55.22;101762.69;1653144;84;25768;-65
2022/03/26 00:15:16;;;;;;;77.78;29.63;;;;;;;8.47;55.17;101768.13;1610383;86;98872;-65
2022/03/26 00:17:42;;;;;;;75.25;30.77;;;;;;;8.39;55.22;101759.36;1589675;87;25752;-66
2022/03/26 00:20:10;;;;;;;85.62;31.52;;;;;;;8.33;55.28;101767.48;1583790;88;27463;-65
2022/03/26 00:22:36;;;;;;;81.30;30.32;;;;;;;8.26;55.32;101761.31;1622601;86;98887;-65
2022/03/26 00:25:03;;;;;;;79.47;31.17;;;;;;;8.20;55.57;101756.53;1620030;86;25928;-65
2022/03/26 00:27:30;;;;;;;84.07;31.30;;;;;;;8.10;55.64;101755.79;1622433;86;99011;-65
2022/03/26 00:29:57;;;;;;;86.02;33.53;;;;;;;8.06;55.76;101758.08;1618190;86;27045;-65
2022/03/26 00:32:24;;;;;;;84.30;31.87;;;;;;;7.98;55.79;101751.97;1624066;86;29485;-65
2022/03/26 00:34:50;;;;;;;82.78;30.85;;;;;;;7.93;55.87;101748.48;1611239;88;98727;-65
2022/03/26 00:37:16;;;;;;;81.25;32.25;;;;;;;7.88;55.94;101741.87;1594542;88;25859;-65
2022/03/26 00:39:42;;;;;;;88.15;29.12;;;;;;;7.84;56.01;101748.16;1632974;85;98748;-65
2022/03/26 00:42:09;;;;;;;69.70;27.75;;;;;;;7.79;56.26;101734.04;1635825;85;25968;-65
2022/03/26 00:44:37;;;;;;;70.15;28.07;;;;;;;7.78;56.23;101731.82;1643620;85;29569;-65
2022/03/26 00:47:04;;;;;;;69.65;28.90;;;;;;;7.79;56.31;101736.70;1653933;85;98635;-64
2022/03/26 00:49:31;;;;;;;66.22;27.48;;;;;;;7.83;56.47;101726.38;1652172;86;25800;-65
2022/03/26 00:51:57;;;;;;;73.45;28.32;;;;;;;7.85;56.49;101729.03;1660867;85;98652;-65
2022/03/26 00:54:24;;;;;;;69.42;27.42;;;;;;;7.86;56.64;101722.34;1664693;84;25774;-65
2022/03/26 00:56:51;;;;;;;65.87;27.22;;;;;;;7.88;56.65;101719.64;1674329;83;98971;-65
2022/03/26 00:59:17;;;;;;;70.55;27.22;;;;;;;7.87;56.79;101721.43;1642661;85;25844;-64
2022/03/26 01:01:43;;;;;;;69.40;27.87;;;;;;;7.87;56.92;101707.20;1675168;85;25955;-65
2022/03/26 01:04:09;;;;;;;69.92;26.82;;;;;;;7.86;56.93;101712.99;1675163;85;98888;-65
2022/03/26 01:06:35;;;;;;;74.97;27.87;;;;;;;7.85;57.00;101706.34;1672405;85;25815;-65
2022/03/26 01:09:02;;;;;;;80.80;28.98;;;;;;;7.84;57.15;101713.47;1677456;85;98918;-64
2022/03/26 01:11:28;;;;;;;67.78;27.10;;;;;;;7.82;57.15;101716.16;1667341;85;25780;-65
2022/03/26 01:13:56;;;;;;;64.53;27.40;;;;;;;7.80;57.26;101707.78;1675071;85;25759;-65
2022/03/26 01:16:25;;;;;;;60.25;27.00;;;;;;;7.77;57.34;101713.16;1671004;83;98736;-65
2022/03/26 01:18:53;;;;;;;60.95;26.40;;;;;;;7.77;57.45;101711.83;1674703;85;26387;-64
2022/03/26 01:21:20;;;;;;;66.45;26.00;;;;;;;7.76;57.47;101714.95;1665721;85;99057;-65
2022/03/26 01:23:47;;;;;;;78.55;30.10;;;;;;;7.73;57.64;101710.11;1677619;85;25820;-64
2022/03/26 01:26:18;;;;;;;79.27;31.02;;;;;;;7.70;57.60;101707.48;1677450;85;25895;-66
2022/03/26 01:28:44;;;;;;;79.85;32.30;;;;;;;7.66;57.62;101708.44;1660223;84;98720;-64
2022/03/26 01:31:11;;;;;;;81.47;31.95;;;;;;;7.60;57.64;101698.73;1672775;83;25814;-64
2022/03/26 01:33:37;;;;;;;79.30;29.87;;;;;;;7.56;57.76;101700.12;1633447;85;98762;-64
2022/03/26 01:36:06;;;;;;;71.62;28.92;;;;;;;7.52;57.92;101702.41;1664733;85;25851;-66
2022/03/26 01:38:32;;;;;;;72.58;29.27;;;;;;;7.45;58.14;101702.49;1680282;85;25821;-64
2022/03/26 01:40:58;;;;;;;85.53;31.10;;;;;;;7.43;58.22;101702.97;1678512;85;98603;-65
2022/03/26 01:43:24;;;;;;;81.65;31.27;;;;;;;7.41;58.30;101698.55;1678042;85;25823;-65
2022/03/26 01:45:50;;;;;;;72.10;29.67;;;;;;;7.41;58.50;101695.89;1644610;83;98704;-64
2022/03/26 01:48:15;;;;;;;88.20;31.68;;;;;;;7.40;58.33;101698.13;1629854;85;26053;-65
2022/03/26 01:50:42;;;;;;;66.35;28.00;;;;;;;7.39;58.40;101690.58;1667076;85;98982;-64
2022/03/26 01:53:08;;;;;;;79.55;30.60;;;;;;;7.38;58.46;101686.14;1666947;85;25824;-65
2022/03/26 01:55:35;;;;;;;73.42;28.12;;;;;;;7.35;58.63;101677.30;1671360;85;25778;-64
2022/03/26 01:58:02;;;;;;;73.90;28.55;;;;;;;7.31;58.70;101679.58;1662266;85;98744;-65
2022/03/26 02:00:29;;;;;;;63.83;27.77;;;;;;;7.28;58.91;101684.95;1666772;85;25743;-64
2022/03/26 02:02:55;;;;;;;76.22;30.43;;;;;;;7.25;59.05;101681.88;1665804;85;98954;-65
2022/03/26 02:05:21;;;;;;;81.50;29.35;;;;;;;7.24;59.22;101677.45;1669781;84;27944;-66
2022/03/26 02:07:49;;;;;;;78.17;28.30;;;;;;;7.25;59.15;101681.88;1664185;85;26601;-65
2022/03/26 02:10:18;;;;;;;95.62;30.32;;;;;;;7.24;59.35;101677.45;1651104;83;98843;-65
2022/03/26 02:12:47;;;;;;;77.75;29.35;;;;;;;7.22;59.41;101668.58;1673754;84;26410;-64
2022/03/26 02:15:15;;;;;;;88.47;30.55;;;;;;;7.25;59.39;101671.20;1674060;83;99001;-64
2022/03/26 02:17:42;;;;;;;88.05;32.60;;;;;;;7.26;59.49;101673.42;1669261;83;26354;-65
2022/03/26 02:20:13;;;;;;;74.00;29.50;;;;;;;7.26;59.69;101673.42;1665318;85;25789;-64
2022/03/26 02:22:40;;;;;;;77.97;30.02;;;;;;;7.29;59.70;101672.05;1665077;83;98813;-64
2022/03/26 02:25:09;;;;;;;76.30;30.10;;;;;;;7.31;59.72;101666.24;1648756;85;25832;-64
2022/03/26 02:27:36;;;;;;;79.25;27.73;;;;;;;7.32;59.90;101666.22;1669704;84;98746;-64
2022/03/26 02:30:04;;;;;;;80.07;30.20;;;;;;;7.33;59.75;101662.66;1672309;83;25797;-65
2022/03/26 02:32:29;;;;;;;72.80;28.90;;;;;;;7.36;59.71;101665.73;1664399;84;25761;-64
2022/03/26 02:34:57;;;;;;;70.03;26.55;;;;;;;7.35;59.74;101663.52;1653714;85;98962;-64
2022/03/26 02:37:23;;;;;;;75.20;26.30;;;;;;;7.35;59.96;101660.84;1652275;85;25902;-64
2022/03/26 02:39:49;;;;;;;83.22;30.70;;;;;;;7.39;59.90;101653.69;1653543;85;99208;-64
2022/03/26 02:42:15;;;;;;;77.05;29.90;;;;;;;7.39;59.83;101651.02;1628290;86;25825;-64
2022/03/26 02:44:42;;;;;;;77.85;28.85;;;;;;;7.38;59.79;101646.59;1627368;85;108602;-63
2022/03/26 02:47:11;;;;;;;72.20;28.70;;;;;;;7.37;59.87;101656.38;1664290;83;27593;-64
2022/03/26 02:49:37;;;;;;;81.22;33.00;;;;;;;7.37;59.91;101654.16;1670898;84;25835;-64
2022/03/26 02:52:05;;;;;;;77.45;29.00;;;;;;;7.36;60.21;101650.61;1662782;84;98736;-64
2022/03/26 02:54:31;;;;;;;66.15;27.50;;;;;;;7.34;59.97;101647.08;1648788;84;25784;-64
2022/03/26 02:56:57;;;;;;;77.17;28.42;;;;;;;7.30;59.81;101641.36;1651297;84;98806;-64
2022/03/26 02:59:23;;;;;;;72.78;28.87;;;;;;;7.26;59.85;101638.76;1655551;84;27404;-65
2022/03/26 03:01:55;;;;;;;67.08;26.62;;;;;;;7.22;59.98;101632.59;1651949;84;26011;-65
2022/03/26 03:04:23;;;;;;;66.95;26.82;;;;;;;7.18;59.91;101629.53;1655880;84;98774;-65
2022/03/26 03:06:49;;;;;;;72.90;26.77;;;;;;;7.16;59.97;101636.67;1647534;84;26426;-65
2022/03/26 03:09:15;;;;;;;62.65;26.62;;;;;;;7.15;60.09;101636.23;1661164;84;98928;-65
2022/03/26 03:11:41;;;;;;;73.12;27.30;;;;;;;7.12;60.37;101637.16;1652739;84;27422;-65
2022/03/26 03:14:07;;;;;;;61.53;24.85;;;;;;;7.14;60.64;101640.69;1658379;84;25817;-65
2022/03/26 03:16:33;;;;;;;56.40;24.20;;;;;;;7.19;60.52;101637.96;1655430;84;98547;-65
2022/03/26 03:19:00;;;;;;;61.02;23.77;;;;;;;7.23;60.84;101627.68;1658281;84;25853;-65
2022/03/26 03:21:25;;;;;;;52.10;23.75;;;;;;;7.31;60.78;101632.45;1654183;84;99005;-65
2022/03/26 03:23:51;;;;;;;56.02;24.63;;;;;;;7.33;60.79;101635.98;1654249;84;29584;-65
2022/03/26 03:26:17;;;;;;;63.52;24.47;;;;;;;7.37;60.98;101637.70;1661328;84;33334;-65
2022/03/26 03:28:43;;;;;;;55.75;22.27;;;;;;;7.42;61.03;101622.97;1646913;84;98812;-65
2022/03/26 03:31:10;;;;;;;59.08;23.77;;;;;;;7.41;60.90;101620.75;1653632;84;26622;-65
2022/03/26 03:33:37;;;;;;;60.67;23.60;;;;;;;7.42;60.93;101618.52;1661593;84;98860;-65
2022/03/26 03:36:04;;;;;;;55.45;23.50;;;;;;;7.45;60.99;101619.80;1670254;85;27497;-65
2022/03/26 03:38:30;;;;;;;60.55;24.12;;;;;;;7.47;61.00;101619.33;1670140;85;26259;-65
2022/03/26 03:40:56;;;;;;;58.95;24.80;;;;;;;7.53;61.12;101615.69;1656083;84;98716;-65
2022/03/26 03:43:23;;;;;;;67.75;24.82;;;;;;;7.61;61.10;101615.56;1654254;84;25828;-65
2022/03/26 03:45:49;;;;;;;60.33;24.40;;;;;;;7.67;61.23;101612.80;1644852;84;98913;-65
2022/03/26 03:48:15;;;;;;;62.27;25.48;;;;;;;7.67;61.23;101613.69;1640386;85;27446;-65
2022/03/26 03:50:42;;;;;;;61.50;24.65;;;;;;;7.68;61.16;101620.78;1668381;84;98913;-64
2022/03/26 03:53:08;;;;;;;62.13;26.07;;;;;;;7.68;61.21;101613.23;1642538;85;25879;-65
2022/03/26 03:55:34;;;;;;;61.80;23.67;;;;;;;7.68;61.19;101610.11;1643824;85;27856;-65
2022/03/26 03:57:59;;;;;;;51.48;23.00;;;;;;;7.69;61.23;101622.55;1645512;85;98837;-65
2022/03/26 04:00:25;;;;;;;49.58;21.45;;;;;;;7.69;61.30;101608.32;1651477;85;27523;-65
2022/03/26 04:02:53;;;;;;;62.58;25.40;;;;;;;7.67;61.44;101620.36;1652492;85;98780;-65
2022/03/26 04:05:19;;;;;;;69.65;24.50;;;;;;;7.64;61.35;101607.52;1628476;88;25676;-65
2022/03/26 04:07:45;;;;;;;55.90;24.15;;;;;;;7.63;61.34;101613.30;1628474;86;25854;-65
2022/03/26 04:10:11;;;;;;;56.30;26.05;;;;;;;7.64;61.41;101615.52;1644235;85;98827;-65
2022/03/26 04:12:42;;;;;;;60.00;24.20;;;;;;;7.61;61.38;101604.89;1655249;86;27475;-65
2022/03/26 04:15:11;;;;;;;57.80;24.40;;;;;;;7.58;61.32;101607.16;1654583;85;98905;-64
2022/03/26 04:17:38;;;;;;;62.67;23.30;;;;;;;7.53;61.32;101609.02;1655833;86;25714;-64
2022/03/26 04:20:08;;;;;;;59.45;24.52;;;;;;;7.48;61.50;101597.08;1655361;86;25939;-64
2022/03/26 04:22:35;;;;;;;59.85;24.15;;;;;;;7.46;61.40;101596.67;1654521;86;98827;-64
2022/03/26 04:25:02;;;;;;;60.63;23.67;;;;;;;7.43;61.49;101590.94;1655787;86;27465;-64
2022/03/26 04:27:28;;;;;;;67.42;26.10;;;;;;;7.39;61.55;101597.67;1654340;85;98763;-64
2022/03/26 04:29:54;;;;;;;68.67;25.77;;;;;;;7.35;61.68;101594.62;1655384;86;26052;-65
2022/03/26 04:32:21;;;;;;;57.48;24.87;;;;;;;7.33;61.59;101604.43;1655437;86;25733;-63
2022/03/26 04:34:46;;;;;;;56.63;22.48;;;;;;;7.30;61.69;101600.48;1654322;86;98738;-64
2022/03/26 04:37:12;;;;;;;57.60;25.10;;;;;;;7.27;61.81;101593.86;1655285;86;29612;-65
2022/03/26 04:39:38;;;;;;;65.32;24.30;;;;;;;7.25;61.93;101583.66;1657017;85;98823;-66
2022/03/26 04:42:05;;;;;;;66.10;24.90;;;;;;;7.23;62.01;101593.47;1674504;83;26591;-65
2022/03/26 04:44:31;;;;;;;54.53;24.02;;;;;;;7.21;61.88;101588.16;1667327;83;25859;-65
2022/03/26 04:46:57;;;;;;;57.33;23.47;;;;;;;7.19;61.83;101592.63;1676202;83;98541;-66
2022/03/26 04:49:24;;;;;;;58.68;22.90;;;;;;;7.17;62.15;101590.44;1658376;84;27496;-66
2022/03/26 04:51:50;;;;;;;58.87;24.60;;;;;;;7.16;62.05;101590.89;1645336;85;98851;-65
2022/03/26 04:54:16;;;;;;;57.03;24.35;;;;;;;7.17;62.08;101585.11;1650727;85;25854;-65
2022/03/26 04:56:42;;;;;;;53.87;23.80;;;;;;;7.16;62.18;101580.67;1650941;86;97991;-65
2022/03/26 04:59:07;;;;;;;55.05;22.45;;;;;;;7.14;62.32;101583.81;1643122;86;25902;-65
2022/03/26 05:01:33;;;;;;;56.13;23.37;;;;;;;7.13;62.49;101574.94;1650382;86;27525;-66
2022/03/26 05:03:59;;;;;;;54.88;24.18;;;;;;;7.14;62.54;101582.48;1651463;84;98774;-65
2022/03/26 05:06:25;;;;;;;57.35;23.40;;;;;;;7.12;62.63;101580.29;1647619;85;25797;-65
2022/03/26 05:08:51;;;;;;;54.53;24.98;;;;;;;7.10;62.43;101576.77;1650676;84;98904;-65
2022/03/26 05:11:18;;;;;;;53.45;21.90;;;;;;;7.07;62.45;101583.47;1645787;86;25750;-65
2022/03/26 05:13:44;;;;;;;55.80;23.52;;;;;;;7.07;62.50;101588.35;1648927;84;27446;-65
2022/03/26 05:16:10;;;;;;;48.48;21.07;;;;;;;7.07;62.44;101600.35;1646874;86;98768;-65
2022/03/26 05:18:37;;;;;;;50.38;21.02;;;;;;;7.08;62.69;101582.13;1645418;85;26140;-65
2022/03/26 05:21:02;;;;;;;53.85;23.25;;;;;;;7.09;62.64;101584.33;1642156;85;99107;-64
2022/03/26 05:23:28;;;;;;;50.40;22.30;;;;;;;7.10;62.90;101581.64;1648460;84;25844;-65
2022/03/26 05:25:54;;;;;;;57.90;22.27;;;;;;;7.11;62.85;101570.08;1650293;86;27465;-65
2022/03/26 05:28:21;;;;;;;57.23;22.93;;;;;;;7.11;62.71;101575.41;1644865;84;98748;-65
2022/03/26 05:30:51;;;;;;;54.15;21.77;;;;;;;7.10;62.77;101562.98;1644453;86;25795;-64
2022/03/26 05:33:18;;;;;;;57.90;22.10;;;;;;;7.09;62.96;101563.89;1647283;85;99015;-65
2022/03/26 05:35:44;;;;;;;57.30;22.40;;;;;;;7.10;62.84;101566.10;1645629;86;25694;-64
2022/03/26 05:38:10;;;;;;;57.62;23.12;;;;;;;7.12;62.93;101583.84;1649971;84;27424;-64
2022/03/26 05:40:37;;;;;;;59.45;22.20;;;;;;;7.14;62.84;101567.82;1647453;86;98923;-64
2022/03/26 05:43:03;;;;;;;47.05;21.07;;;;;;;7.17;62.91;101575.77;1646936;86;25739;-64
2022/03/26 05:45:29;;;;;;;47.62;21.17;;;;;;;7.20;63.00;101578.39;1657624;84;98707;-64
2022/03/26 05:48:06;;;;;;;48.23;20.88;;;;;;;7.25;63.05;101602.33;1650150;85;26499;-64
2022/03/26 05:50:34;;;;;;;53.42;21.62;;;;;;;7.31;62.89;101575.13;1660255;85;28148;-66
2022/03/26 05:53:00;;;;;;;46.40;20.25;;;;;;;7.38;62.95;101574.58;1654270;84;98362;-66
2022/03/26 05:55:26;;;;;;;48.02;20.62;;;;;;;7.46;62.97;101584.22;1636054;87;25836;-66
2022/03/26 05:57:52;;;;;;;49.38;21.05;;;;;;;7.53;63.00;101574.34;1623357;85;98738;-64
2022/03/26 06:00:18;;;;;;;49.63;21.17;;;;;;;7.60;62.99;101583.13;1625892;85;25784;-67
2022/03/26 06:02:46;;;;;;;57.10;20.48;;;;;;;7.67;62.96;101588.79;1648872;85;98068;-64
2022/03/26 06:05:12;;;;;;;52.60;22.20;;;;;;;7.73;62.91;101584.23;1626643;86;25709;-65
2022/03/26 06:07:38;;;;;;;55.95;23.27;;;;;;;7.81;62.91;101585.41;1633632;86;25841;-64
2022/03/26 06:10:05;;;;;;;53.13;20.80;;;;;;;7.89;62.81;101595.50;1643954;84;98826;-64
2022/03/26 06:12:31;;;;;;;46.13;21.52;;;;;;;7.94;62.90;101588.74;1659212;84;25846;-65
2022/03/26 06:14:58;;;;;;;45.85;20.43;;;;;;;8.02;62.87;101573.02;1654248;85;99398;-64
2022/03/26 06:17:24;;;;;;;44.83;18.92;;;;;;;8.09;62.73;101571.11;1667560;85;27136;-65
2022/03/26 06:19:50;;;;;;;46.75;20.70;;;;;;;8.17;62.68;101562.96;1668456;84;25958;-67
2022/03/26 06:22:16;;;;;;;41.98;19.50;;;;;;;8.21;62.73;101566.00;1665265;85;99597;-65
2022/03/26 06:24:42;;;;;;;64.53;22.58;;;;;;;8.25;62.60;101569.04;1647544;85;26001;-65
2022/03/26 06:27:08;;;;;;;45.43;20.95;;;;;;;8.28;62.54;101560.52;1666558;84;99566;-66
2022/03/26 06:29:36;;;;;;;44.55;19.40;;;;;;;8.29;62.45;101572.08;1667153;83;26320;-65
2022/03/26 06:32:04;;;;;;;45.63;20.00;;;;;;;8.31;62.46;101555.11;1668680;83;25783;-67
2022/03/26 06:34:30;;;;;;;49.27;18.65;;;;;;;8.32;62.37;101558.66;1647122;85;98962;-66
2022/03/26 06:36:56;;;;;;;52.93;21.07;;;;;;;8.36;62.41;101562.62;1641806;85;25713;-66
2022/03/26 06:39:22;;;;;;;47.13;20.25;;;;;;;8.39;62.35;101551.87;1645691;85;99116;-66
2022/03/26 06:41:48;;;;;;;53.38;21.60;;;;;;;8.44;62.29;101551.78;1674738;84;27335;-66
2022/03/26 06:44:13;;;;;;;47.90;20.45;;;;;;;8.52;62.32;101554.30;1645309;85;26006;-66
2022/03/26 06:46:40;;;;;;;49.45;22.90;;;;;;;8.56;62.29;101554.20;1645411;85;99291;-66
2022/03/26 06:49:08;;;;;;;50.75;21.70;;;;;;;8.62;62.17;101546.06;1671713;83;25633;-66
2022/03/26 06:51:35;;;;;;;50.17;20.40;;;;;;;8.67;62.16;101542.83;1671698;83;98890;-65
2022/03/26 06:54:01;;;;;;;43.73;18.82;;;;;;;8.71;62.09;101548.54;1673339;83;26684;-65
2022/03/26 06:56:27;;;;;;;49.30;20.05;;;;;;;8.78;62.07;101540.81;1669365;83;25883;-66
2022/03/26 06:58:53;;;;;;;42.73;19.92;;;;;;;8.87;62.13;101542.41;1690956;83;98925;-64
2022/03/26 07:01:19;;;;;;;58.00;20.23;;;;;;;8.95;62.06;101541.78;1698638;82;26430;-64
2022/03/26 07:03:45;;;;;;;47.53;19.60;;;;;;;9.00;62.04;101557.27;1698715;82;98899;-65
2022/03/26 07:06:12;;;;;;;58.10;20.02;;;;;;;9.10;62.08;101549.91;1702635;83;25755;-65
2022/03/26 07:08:38;;;;;;;47.23;18.65;;;;;;;9.17;62.15;101543.51;1702508;82;26082;-66
2022/03/26 07:11:04;;;;;;;54.15;20.77;;;;;;;9.23;62.09;101547.38;1695889;83;98772;-64
2022/03/26 07:13:30;;;;;;;38.85;17.92;;;;;;;9.32;62.05;101541.81;1700766;83;26372;-65
2022/03/26 07:15:56;;;;;;;42.10;18.77;;;;;;;9.41;62.09;101545.60;1697476;83;98960;-64
2022/03/26 07:18:22;;;;;;;39.23;17.20;;;;;;;9.48;62.06;101542.31;1702628;82;25722;-63
2022/03/26 07:20:48;;;;;;;43.23;17.00;;;;;;;9.56;62.11;101542.13;1694530;82;99007;-66
2022/03/26 07:23:14;;;;;;;39.58;17.37;;;;;;;9.65;62.11;101536.09;1700680;82;26681;-65
2022/03/26 07:25:39;;;;;;;44.35;17.85;;;;;;;9.70;62.05;101550.23;1694249;82;26629;-66
2022/03/26 07:28:06;;;;;;;56.65;20.10;;;;;;;9.75;62.06;101543.42;1702348;83;98999;-66
2022/03/26 07:30:32;;;;;;;55.78;18.98;;;;;;;9.80;62.11;101533.94;1677030;83;25846;-65
2022/03/26 07:32:57;;;;;;;40.00;17.55;;;;;;;9.87;62.10;101543.56;1679465;85;99038;-66
2022/03/26 07:35:23;;;;;;;99.72;21.55;;;;;;;9.93;62.01;101535.37;1696344;83;25753;-65
2022/03/26 07:37:50;;;;;;;54.00;19.05;;;;;;;9.97;61.90;101541.95;1700133;82;26762;-65
2022/03/26 07:40:15;;;;;;;43.75;17.70;;;;;;;10.02;61.91;101542.70;1695945;83;99023;-65
2022/03/26 07:42:42;;;;;;;46.18;17.40;;;;;;;10.06;61.79;101537.69;1697718;83;25717;-65
2022/03/26 07:45:09;;;;;;;42.08;18.37;;;;;;;10.14;61.71;101552.21;1696404;82;98386;-65
2022/03/26 07:47:38;;;;;;;38.53;18.07;;;;;;;10.17;61.62;101533.84;1699718;82;26605;-65
2022/03/26 07:50:07;;;;;;;51.75;19.57;;;;;;;10.22;61.50;101534.16;1686148;83;26097;-66
2022/03/26 07:52:34;;;;;;;43.25;17.10;;;;;;;10.31;61.45;101531.69;1678657;84;98960;-67
2022/03/26 07:55:00;;;;;;;68.70;17.45;;;;;;;10.39;61.32;101518.48;1673253;84;26866;-65
2022/03/26 07:57:27;;;;;;;43.75;18.98;;;;;;;10.48;61.18;101519.99;1677493;84;99107;-66
2022/03/26 07:59:53;;;;;;;39.85;16.10;;;;;;;10.54;60.95;101530.53;1680409;84;26114;-66
2022/03/26 08:02:19;;;;;;;68.67;18.40;;;;;;;10.59;60.68;101525.92;1679645;84;25897;-65
2022/03/26 08:04:46;;;;;;;54.27;17.95;;;;;;;10.66;60.57;101536.00;1669903;84;99163;-67
2022/03/26 08:07:12;;;;;;;37.45;15.18;;;;;;;10.72;60.49;101522.41;1680748;83;25589;-66
2022/03/26 08:09:38;;;;;;;36.55;17.70;;;;;;;10.84;60.43;101523.84;1676571;83;99327;-66
2022/03/26 08:12:05;;;;;;;63.78;17.52;;;;;;;10.97;60.30;101514.03;1674937;84;25745;-66
2022/03/26 08:14:33;;;;;;;35.25;15.90;;;;;;;11.12;60.05;101521.19;1683030;84;25673;-65
2022/03/26 08:17:04;;;;;;;40.60;16.45;;;;;;;11.19;59.90;101523.62;1674034;84;97960;-66
2022/03/26 08:19:28;;;;;;;94.55;16.15;;;;;;;11.30;59.77;101515.23;1675121;84;25858;-65
2022/03/26 08:21:55;;;;;;;114.50;19.00;;;;;;;11.41;59.26;101523.81;1676095;84;98973;-66
2022/03/26 08:24:21;;;;;;;49.60;15.32;;;;;;;11.48;58.69;101512.41;1684884;84;25732;-68
2022/03/26 08:26:47;;;;;;;59.95;14.90;;;;;;;11.47;58.76;101520.05;1683980;83;99328;-64
2022/03/26 08:29:13;;;;;;;35.45;12.30;;;;;;;11.56;58.42;101524.65;1682633;84;28224;-67
2022/03/26 08:31:39;;;;;;;60.12;13.38;;;;;;;11.58;58.11;101511.17;1680440;83;25988;-64
2022/03/26 08:34:05;;;;;;;35.50;13.93;;;;;;;11.64;58.20;101526.61;1684848;83;99150;-65
2022/03/26 08:36:31;;;;;;;115.20;18.87;;;;;;;11.69;58.13;101535.39;1684964;84;25844;-63
2022/03/26 08:38:57;;;;;;;44.40;13.78;;;;;;;11.75;58.07;101512.82;1681628;84;99427;-66
2022/03/26 08:41:24;;;;;;;36.30;12.98;;;;;;;11.83;58.07;101513.94;1686014;83;27497;-64
2022/03/26 08:43:51;;;;;;;41.05;14.05;;;;;;;11.93;57.78;101510.88;1682780;83;26678;-66
2022/03/26 08:46:19;;;;;;;34.10;12.93;;;;;;;11.96;57.41;101520.17;1679197;84;99399;-64
2022/03/26 08:48:46;;;;;;;75.17;13.95;;;;;;;11.97;57.52;101531.33;1681995;83;26328;-63
2022/03/26 08:51:12;;;;;;;149.05;19.30;;;;;;;11.96;57.35;101520.17;1689654;84;99356;-64
2022/03/26 08:53:39;;;;;;;43.25;14.83;;;;;;;11.95;57.36;101522.91;1634480;87;28443;-64
2022/03/26 08:56:06;;;;;;;34.78;13.20;;;;;;;11.91;57.40;101522.14;1694799;84;26840;-64
2022/03/26 08:58:33;;;;;;;34.58;14.05;;;;;;;11.90;57.53;101519.04;1694450;83;99179;-64
2022/03/26 09:01:01;;;;;;;36.83;13.83;;;;;;;11.98;57.58;101522.34;1691478;82;25924;-65
2022/03/26 09:03:27;;;;;;;39.00;14.07;;;;;;;12.10;57.64;101514.30;1691622;84;99186;-64
2022/03/26 09:05:54;;;;;;;39.08;15.65;;;;;;;12.23;57.48;101525.03;1693403;83;27485;-69
2022/03/26 09:08:21;;;;;;;50.38;14.28;;;;;;;12.29;57.43;101520.77;1695457;84;43145;-65
2022/03/26 09:10:47;;;;;;;34.13;15.25;;;;;;;12.33;57.24;101526.45;1691985;83;99100;-65
2022/03/26 09:13:12;;;;;;;44.25;13.88;;;;;;;12.33;57.18;101500.91;1693039;83;25797;-66
2022/03/26 09:15:39;;;;;;;57.62;16.25;;;;;;;12.37;57.31;101522.30;1693798;84;99116;-67
2022/03/26 09:18:08;;;;;;;35.48;14.65;;;;;;;12.35;57.20;101499.05;1691792;84;29495;-66
2022/03/26 09:20:36;;;;;;;32.23;14.53;;;;;;;12.33;57.36;101498.69;1692634;84;26229;-66
2022/03/26 09:23:02;;;;;;;76.07;16.30;;;;;;;12.39;57.40;101495.77;1693370;82;98867;-67
2022/03/26 09:25:29;;;;;;;32.78;12.98;;;;;;;12.45;57.49;101517.05;1693389;83;25835;-66
2022/03/26 09:27:55;;;;;;;44.35;15.45;;;;;;;12.45;57.62;101517.05;1691158;84;99029;-66
2022/03/26 09:30:21;;;;;;;37.80;13.80;;;;;;;12.52;57.83;101510.52;1693755;84;27493;-66
2022/03/26 09:32:47;;;;;;;33.58;14.80;;;;;;;12.72;57.86;101503.03;1691715;83;99314;-65
2022/03/26 09:35:15;;;;;;;30.30;13.05;;;;;;;12.94;57.65;101516.53;1690717;82;26573;-65
2022/03/26 09:37:42;;;;;;;46.70;13.22;;;;;;;12.96;57.45;101521.37;1695650;84;26725;-67
2022/03/26 09:40:12;;;;;;;54.03;14.28;;;;;;;13.00;57.52;101530.59;1692739;83;99151;-65
2022/03/26 09:42:39;;;;;;;37.03;13.58;;;;;;;13.08;57.59;101519.52;1693997;83;26620;-66
2022/03/26 09:45:08;;;;;;;43.60;11.73;;;;;;;13.04;57.55;101523.73;1692691;83;99277;-65
2022/03/26 09:47:35;;;;;;;36.00;12.82;;;;;;;13.00;57.62;101526.55;1694954;84;25866;-65
2022/03/26 09:50:06;;;;;;;35.58;13.05;;;;;;;12.98;57.68;101519.51;1694835;83;26622;-65
2022/03/26 09:52:34;;;;;;;33.50;13.43;;;;;;;13.06;57.73;101530.81;1679205;84;99035;-65
2022/03/26 09:55:01;;;;;;;35.23;13.62;;;;;;;13.02;57.62;101533.22;1684599;84;28023;-65
2022/03/26 09:57:27;;;;;;;30.68;14.00;;;;;;;12.93;57.57;101523.72;1686144;82;99126;-65
2022/03/26 09:59:53;;;;;;;42.73;13.25;;;;;;;12.81;57.64;101530.05;1679836;84;26220;-66
2022/03/26 10:02:18;;;;;;;32.03;13.93;;;;;;;12.65;57.70;101527.94;1687033;82;26039;-65
2022/03/26 10:04:44;;;;;;;35.17;15.75;;;;;;;12.53;58.06;101540.50;1677176;83;99034;-65
2022/03/26 10:07:12;;;;;;;35.90;13.75;;;;;;;12.49;58.44;101538.86;1679446;84;27395;-65
2022/03/26 10:09:41;;;;;;;39.18;15.05;;;;;;;12.38;58.41;101535.69;1678622;83;99162;-65
2022/03/26 10:12:17;;;;;;;76.87;16.15;;;;;;;12.31;59.42;101565.95;1683177;83;26399;-66
2022/03/26 10:14:47;;;;;;;42.00;15.60;;;;;;;12.11;59.45;101536.68;1689280;82;99319;-66
2022/03/26 10:17:21;;;;;;;36.30;14.75;;;;;;;11.91;59.64;101537.38;1695337;82;26658;-66
2022/03/26 10:19:50;;;;;;;32.83;14.10;;;;;;;11.93;59.85;101536.39;1688039;84;29513;-65
2022/03/26 10:22:35;;;;;;;29.72;12.75;;;;;;;11.95;60.01;101550.66;1687239;84;99052;-65
2022/03/26 10:25:08;;;;;;;31.75;13.18;;;;;;;11.95;60.26;101541.25;1691865;84;25846;-65
2022/03/26 10:27:46;;;;;;;23.90;11.97;;;;;;;11.97;60.45;101558.20;1678790;84;99050;-65
2022/03/26 10:32:38;;;;;;;36.05;13.58;;;;;;;12.01;60.27;101541.50;1675136;83;26002;-66
2022/03/26 10:32:50;;;;;;;27.48;13.62;;;;;;;11.99;60.26;101539.33;1682301;83;99203;-64
2022/03/26 10:35:21;;;;;;;21.37;11.70;;;;;;;12.04;60.32;101541.39;1685967;82;26477;-65
2022/03/26 10:38:01;;;;;;;28.25;13.43;;;;;;;12.01;60.50;101534.31;1685876;83;26075;-66
2022/03/26 10:40:34;;;;;;;27.40;13.08;;;;;;;11.97;60.69;101569.41;1687589;83;99145;-65
2022/03/26 10:43:13;;;;;;;29.00;13.60;;;;;;;11.90;60.75;101556.65;1689319;84;25755;-65
2022/03/26 10:45:50;;;;;;;27.65;14.47;;;;;;;11.85;61.19;101550.56;1679983;83;98262;-66
2022/03/26 10:48:26;;;;;;;44.25;14.80;;;;;;;11.82;61.26;101545.29;1680502;84;25815;-65
2022/03/26 10:51:06;;;;;;;23.67;12.73;;;;;;;11.87;61.22;101547.82;1677847;83;99166;-65
2022/03/26 10:53:41;;;;;;;31.97;14.98;;;;;;;11.94;61.17;101554.27;1668726;84;26286;-64
2022/03/26 10:56:10;;;;;;;38.80;13.48;;;;;;;11.93;61.27;101551.17;1676287;84;26097;-65
2022/03/26 10:58:38;;;;;;;30.45;13.93;;;;;;;11.93;61.32;101559.70;1678473;83;99075;-65
2022/03/26 11:01:05;;;;;;;38.98;14.38;;;;;;;11.94;61.29;101548.02;1681013;83;26564;-64
2022/03/26 11:03:32;;;;;;;30.82;15.25;;;;;;;11.99;61.31;101549.62;1680513;84;99447;-64
2022/03/26 11:05:58;;;;;;;38.98;14.07;;;;;;;12.12;61.28;101562.63;1660296;84;25870;-64
2022/03/26 11:08:29;;;;;;;39.33;14.90;;;;;;;12.16;61.17;101555.74;1676851;84;25903;-65
2022/03/26 11:10:56;;;;;;;49.38;13.55;;;;;;;12.08;60.90;101553.79;1672040;84;99160;-64
2022/03/26 11:13:24;;;;;;;42.40;14.15;;;;;;;12.11;61.20;101559.06;1669812;83;25735;-64